Time;durP1;ratioP1;P1;durP2;ratioP2;P2;SDS_P1;SDS_P2;PMS_P1;PMS_P2;Temp;Humidity;BMP_temperature;BMP_pressure;BME280_temperature;BME280_humidity;BME280_pressure;Samples;Min_cycle;Max_cycle;Signal;HPM_P1;HPM_P2
2023/09/03 06:00:44;;;;;;;10.83;6.40;;;;;;;;;;5832520;23;20584;-76
2023/09/03 06:03:10;;;;;;;8.63;5.87;;;;;;;;;;4923153;29;20426;-75
2023/09/03 06:05:36;;;;;;;10.37;5.83;;;;;;;;;;4918083;29;20411;-76
2023/09/03 06:08:01;;;;;;;14.63;6.10;;;;;;;;;;4917140;29;20414;-76
2023/09/03 06:10:27;;;;;;;11.40;6.37;;;;;;;;;;4931702;29;20431;-76
2023/09/03 06:12:53;;;;;;;10.23;6.60;;;;;;;;;;4930884;29;20501;-76
2023/09/03 06:15:19;;;;;;;10.60;6.80;;;;;;;;;;4936957;29;20414;-74
2023/09/03 06:17:52;;;;;;;10.40;6.20;;;;;;;;;;4936223;29;20406;-75
2023/09/03 06:20:18;;;;;;;14.53;6.00;;;;;;;;;;4936045;29;20441;-75
2023/09/03 06:22:44;;;;;;;12.50;5.63;;;;;;;;;;4934688;29;20792;-75
2023/09/03 06:25:10;;;;;;;11.90;6.03;;;;;;;;;;4918620;29;20522;-75
2023/09/03 06:27:35;;;;;;;10.67;6.47;;;;;;;;;;4915852;29;20426;-75
2023/09/03 06:30:01;;;;;;;9.10;5.20;;;;;;;;;;4916581;29;20423;-75
2023/09/03 06:32:28;;;;;;;13.40;6.13;;;;;;;;;;4916618;29;20466;-75
2023/09/03 06:34:54;;;;;;;9.97;5.93;;;;;;;;;;4930113;29;20469;-75
2023/09/03 06:37:20;;;;;;;13.27;6.00;;;;;;;;;;4935670;29;20449;-75
2023/09/03 06:39:46;;;;;;;16.10;5.83;;;;;;;;;;4935482;29;20503;-75
2023/09/03 06:42:13;;;;;;;11.10;5.87;;;;;;;;;;4935519;29;20545;-75
2023/09/03 06:44:38;;;;;;;14.87;6.07;;;;;;;;;;4934696;29;20429;-75
2023/09/03 06:47:04;;;;;;;13.07;5.87;;;;;;;;;;4935439;29;20421;-75
2023/09/03 06:49:30;;;;;;;16.90;6.07;;;;;;;;;;4934925;29;20414;-75
2023/09/03 06:51:58;;;;;;;11.53;6.37;;;;;;;;;;4932083;29;20854;-75
2023/09/03 06:54:24;;;;;;;11.70;5.50;;;;;;;;;;4917565;29;20466;-75
2023/09/03 06:56:50;;;;;;;11.20;5.10;;;;;;;;;;4919042;29;20507;-74
2023/09/03 06:59:16;;;;;;;9.77;5.37;;;;;;;;;;4919100;29;20526;-75
2023/09/03 07:01:42;;;;;;;7.87;5.17;;;;;;;;;;4920510;29;20549;-76
2023/09/03 07:04:08;;;;;;;8.00;5.00;;;;;;;;;;4922994;29;20457;-75
2023/09/03 07:06:34;;;;;;;9.40;6.03;;;;;;;;;;4929227;29;20449;-75
2023/09/03 07:09:00;;;;;;;11.37;5.57;;;;;;;;;;4926529;29;20416;-76
2023/09/03 07:11:26;;;;;;;11.70;5.63;;;;;;;;;;4933324;29;20449;-76
2023/09/03 07:13:52;;;;;;;9.90;5.43;;;;;;;;;;4937591;29;20436;-76
2023/09/03 07:16:19;;;;;;;10.30;5.53;;;;;;;;;;4931638;29;20422;-76
2023/09/03 07:18:45;;;;;;;10.47;6.10;;;;;;;;;;4919365;29;20498;-74
2023/09/03 07:21:10;;;;;;;11.30;6.47;;;;;;;;;;4919515;29;20442;-74
2023/09/03 07:23:37;;;;;;;7.60;5.00;;;;;;;;;;4919995;29;20414;-75
2023/09/03 07:26:08;;;;;;;9.47;5.27;;;;;;;;;;4919525;29;20414;-75
2023/09/03 07:28:34;;;;;;;11.03;5.70;;;;;;;;;;4919480;29;20411;-75
2023/09/03 07:31:00;;;;;;;10.33;6.10;;;;;;;;;;4920101;29;20800;-75
2023/09/03 07:33:26;;;;;;;8.20;5.27;;;;;;;;;;4938366;29;20467;-75
2023/09/03 07:35:52;;;;;;;10.40;5.70;;;;;;;;;;4938415;29;20934;-75
2023/09/03 07:38:18;;;;;;;9.57;5.57;;;;;;;;;;4936757;29;20418;-75
2023/09/03 07:40:44;;;;;;;13.23;6.50;;;;;;;;;;4938225;29;20867;-75
2023/09/03 07:43:10;;;;;;;12.13;5.37;;;;;;;;;;4916112;29;20448;-75
2023/09/03 07:45:36;;;;;;;7.30;5.30;;;;;;;;;;4900312;29;20471;-75
2023/09/03 07:48:02;;;;;;;8.53;5.20;;;;;;;;;;4900006;29;20411;-75
2023/09/03 07:50:30;;;;;;;15.07;7.03;;;;;;;;;;4900246;29;20416;-74
2023/09/03 07:52:57;;;;;;;10.73;6.07;;;;;;;;;;4931118;29;20864;-75
2023/09/03 07:55:23;;;;;;;10.07;5.40;;;;;;;;;;4936391;29;20456;-75
2023/09/03 07:57:49;;;;;;;7.57;5.27;;;;;;;;;;4937949;29;20406;-76
2023/09/03 08:00:15;;;;;;;11.07;6.00;;;;;;;;;;4915672;29;20468;-76
2023/09/03 08:02:41;;;;;;;11.40;7.03;;;;;;;;;;4933338;29;20423;-76
2023/09/03 08:05:11;;;;;;;10.40;6.43;;;;;;;;;;4918129;29;20421;-75
2023/09/03 08:07:37;;;;;;;12.70;6.53;;;;;;;;;;4900245;29;20804;-74
2023/09/03 08:10:03;;;;;;;11.67;5.87;;;;;;;;;;4900347;29;20424;-75
2023/09/03 08:12:29;;;;;;;13.77;6.33;;;;;;;;;;4899700;29;20459;-75
2023/09/03 08:14:54;;;;;;;8.90;5.67;;;;;;;;;;4899785;29;20427;-75
2023/09/03 08:17:22;;;;;;;11.23;5.90;;;;;;;;;;4917038;29;20422;-75
2023/09/03 08:19:48;;;;;;;9.23;5.77;;;;;;;;;;4918800;29;20979;-75
2023/09/03 08:22:14;;;;;;;10.20;6.80;;;;;;;;;;4918406;29;20435;-72
2023/09/03 08:24:40;;;;;;;9.33;5.90;;;;;;;;;;4918329;29;20762;-71
2023/09/03 08:27:06;;;;;;;13.37;6.37;;;;;;;;;;4910308;29;20430;-71
2023/09/03 08:29:32;;;;;;;9.73;5.97;;;;;;;;;;4917954;29;20461;-71
2023/09/03 08:31:58;;;;;;;9.00;6.00;;;;;;;;;;4918255;29;20472;-72
2023/09/03 08:34:24;;;;;;;12.80;6.20;;;;;;;;;;4918363;29;20419;-71
2023/09/03 08:36:50;;;;;;;14.57;7.07;;;;;;;;;;4917993;29;20422;-71
2023/09/03 08:39:16;;;;;;;10.30;5.73;;;;;;;;;;4911717;29;20431;-72
2023/09/03 08:41:43;;;;;;;9.00;5.60;;;;;;;;;;4916404;29;20446;-73
2023/09/03 08:44:17;;;;;;;8.73;5.13;;;;;;;;;;4918018;29;20505;-72
2023/09/03 08:46:45;;;;;;;8.40;5.63;;;;;;;;;;4917676;29;20426;-72
2023/09/03 08:49:13;;;;;;;10.17;5.30;;;;;;;;;;4917887;29;20551;-72
2023/09/03 08:51:39;;;;;;;8.73;5.27;;;;;;;;;;4918293;29;20509;-72
2023/09/03 08:54:05;;;;;;;8.93;5.17;;;;;;;;;;4929441;29;20908;-72
2023/09/03 08:56:33;;;;;;;11.73;5.43;;;;;;;;;;4925901;29;20427;-72
2023/09/03 08:58:59;;;;;;;9.00;5.10;;;;;;;;;;4917245;29;20421;-72
2023/09/03 09:01:26;;;;;;;12.47;5.37;;;;;;;;;;4916088;29;20553;-72
2023/09/03 09:03:54;;;;;;;8.33;4.70;;;;;;;;;;4917629;29;20422;-72
2023/09/03 09:06:20;;;;;;;7.53;4.97;;;;;;;;;;4910959;29;20431;-72
2023/09/03 09:08:46;;;;;;;12.40;5.50;;;;;;;;;;4915855;29;20893;-72
2023/09/03 09:11:14;;;;;;;9.60;5.03;;;;;;;;;;4917071;29;20442;-72
2023/09/03 09:13:42;;;;;;;7.90;5.17;;;;;;;;;;4917037;29;20461;-72
2023/09/03 09:16:08;;;;;;;9.30;5.73;;;;;;;;;;4916563;29;20421;-72
2023/09/03 09:18:34;;;;;;;9.10;5.40;;;;;;;;;;4915993;29;20427;-71
2023/09/03 09:21:01;;;;;;;6.97;5.10;;;;;;;;;;4913307;29;20478;-72
2023/09/03 09:23:27;;;;;;;7.97;5.60;;;;;;;;;;4917081;29;20485;-72
2023/09/03 09:25:56;;;;;;;8.93;5.30;;;;;;;;;;4916990;29;20415;-71
2023/09/03 09:28:22;;;;;;;9.17;5.37;;;;;;;;;;4916554;29;20434;-73
2023/09/03 09:30:55;;;;;;;8.37;5.60;;;;;;;;;;4917211;29;20591;-72
2023/09/03 09:33:21;;;;;;;8.57;4.63;;;;;;;;;;4916815;29;20517;-72
2023/09/03 09:35:48;;;;;;;6.10;4.00;;;;;;;;;;4916857;29;20415;-71
2023/09/03 09:38:14;;;;;;;7.83;5.03;;;;;;;;;;4915958;29;20425;-72
2023/09/03 09:40:40;;;;;;;5.80;4.30;;;;;;;;;;4916330;29;20491;-73
2023/09/03 09:43:07;;;;;;;7.93;4.43;;;;;;;;;;4917004;29;20788;-72
2023/09/03 09:45:34;;;;;;;7.03;4.40;;;;;;;;;;4917543;29;20485;-78
2023/09/03 09:48:07;;;;;;;8.00;3.77;;;;;;;;;;4922835;29;20434;-79
2023/09/03 09:50:36;;;;;;;6.00;3.80;;;;;;;;;;4919179;29;20454;-75
2023/09/03 09:53:03;;;;;;;9.77;3.97;;;;;;;;;;4920053;29;20525;-73
2023/09/03 09:55:31;;;;;;;4.90;3.63;;;;;;;;;;4935599;29;20421;-70
2023/09/03 09:57:57;;;;;;;8.70;3.60;;;;;;;;;;4930185;29;20419;-69
2023/09/03 10:00:36;;;;;;;7.10;3.97;;;;;;;;;;4916644;29;20518;-69
2023/09/03 10:03:04;;;;;;;8.77;3.73;;;;;;;;;;4919621;29;20849;-70
2023/09/03 10:05:30;;;;;;;3.87;3.10;;;;;;;;;;4922983;29;20446;-69
2023/09/03 10:07:56;;;;;;;5.00;3.30;;;;;;;;;;4918948;29;20431;-69
2023/09/03 10:10:22;;;;;;;8.47;3.73;;;;;;;;;;4920832;29;20845;-74
2023/09/03 10:12:48;;;;;;;7.80;3.50;;;;;;;;;;4925646;29;20480;-73
2023/09/03 10:15:14;;;;;;;4.97;3.30;;;;;;;;;;4920476;29;20896;-71
2023/09/03 10:17:41;;;;;;;4.90;3.30;;;;;;;;;;4921614;29;20524;-74
2023/09/03 10:20:09;;;;;;;3.30;2.70;;;;;;;;;;4920137;29;20415;-75
2023/09/03 10:22:37;;;;;;;3.93;2.60;;;;;;;;;;4920892;29;20904;-75
2023/09/03 10:25:06;;;;;;;5.40;3.03;;;;;;;;;;4920778;29;20419;-75
2023/09/03 10:27:33;;;;;;;4.23;2.93;;;;;;;;;;4918637;29;20425;-76
2023/09/03 10:30:03;;;;;;;3.23;2.60;;;;;;;;;;4932179;29;20797;-76
2023/09/03 10:32:29;;;;;;;6.23;2.83;;;;;;;;;;4917245;29;20462;-74
2023/09/03 10:34:56;;;;;;;3.07;2.80;;;;;;;;;;4918566;29;20434;-76
2023/09/03 10:37:35;;;;;;;3.90;2.50;;;;;;;;;;4918085;29;20428;-76
2023/09/03 10:40:17;;;;;;;3.57;2.17;;;;;;;;;;4899284;29;20412;-73
2023/09/03 10:42:43;;;;;;;4.20;2.30;;;;;;;;;;4897497;29;20483;-70
2023/09/03 10:45:12;;;;;;;3.43;2.17;;;;;;;;;;4914665;29;20434;-69
2023/09/03 10:47:56;;;;;;;2.20;1.60;;;;;;;;;;4916293;29;20486;-70
2023/09/03 10:50:42;;;;;;;2.70;1.73;;;;;;;;;;4916175;29;20486;-69
2023/09/03 10:53:09;;;;;;;3.20;1.80;;;;;;;;;;4920831;29;20540;-71
2023/09/03 10:55:35;;;;;;;2.53;1.43;;;;;;;;;;4917380;29;20435;-69
2023/09/03 10:58:07;;;;;;;2.23;1.63;;;;;;;;;;4916846;29;20449;-70
2023/09/03 11:00:33;;;;;;;2.63;1.87;;;;;;;;;;4916777;29;20450;-70
2023/09/03 11:03:16;;;;;;;3.47;1.90;;;;;;;;;;4922640;29;20418;-70
2023/09/03 11:05:42;;;;;;;2.10;1.93;;;;;;;;;;4939964;29;20748;-70
2023/09/03 11:08:21;;;;;;;3.03;2.50;;;;;;;;;;4940595;29;20477;-70
2023/09/03 11:10:48;;;;;;;2.73;1.80;;;;;;;;;;4935586;29;20520;-71
2023/09/03 11:13:14;;;;;;;3.07;2.17;;;;;;;;;;4935189;29;20468;-70
2023/09/03 11:15:48;;;;;;;6.60;3.60;;;;;;;;;;4919521;29;20445;-71
2023/09/03 11:18:17;;;;;;;5.20;2.20;;;;;;;;;;4934156;29;20485;-71
2023/09/03 11:20:43;;;;;;;1.90;1.77;;;;;;;;;;4935295;29;20421;-70
2023/09/03 11:23:10;;;;;;;3.53;1.97;;;;;;;;;;4935169;29;20413;-71
2023/09/03 11:25:40;;;;;;;3.17;2.20;;;;;;;;;;4918857;29;20465;-70
2023/09/03 11:28:13;;;;;;;2.87;2.00;;;;;;;;;;4915801;29;20426;-72
2023/09/03 11:30:40;;;;;;;4.83;1.87;;;;;;;;;;4915926;29;20544;-72
2023/09/03 11:33:08;;;;;;;1.83;1.57;;;;;;;;;;4914911;29;20458;-77
2023/09/03 11:35:39;;;;;;;3.50;2.20;;;;;;;;;;4930499;29;20963;-77
2023/09/03 11:38:05;;;;;;;3.03;2.00;;;;;;;;;;4935216;29;20413;-77
2023/09/03 11:40:31;;;;;;;6.80;2.70;;;;;;;;;;4938899;29;20906;-77
2023/09/03 11:42:57;;;;;;;4.43;2.43;;;;;;;;;;4939188;29;20509;-77
2023/09/03 11:45:23;;;;;;;5.47;2.63;;;;;;;;;;4921643;29;20448;-77
2023/09/03 11:47:50;;;;;;;3.07;2.30;;;;;;;;;;4919980;29;20498;-77
2023/09/03 11:50:17;;;;;;;3.30;2.13;;;;;;;;;;4919537;29;20419;-77
2023/09/03 11:52:56;;;;;;;3.93;2.43;;;;;;;;;;4919496;29;20885;-77
2023/09/03 11:55:24;;;;;;;3.80;2.30;;;;;;;;;;4936646;29;20480;-77
2023/09/03 11:57:50;;;;;;;5.57;2.80;;;;;;;;;;4938373;29;20501;-77
2023/09/03 12:00:16;;;;;;;3.10;2.30;;;;;;;;;;4938754;29;20418;-77
2023/09/03 12:02:43;;;;;;;5.07;2.53;;;;;;;;;;4938562;29;20430;-77
2023/09/03 12:05:09;;;;;;;2.77;2.47;;;;;;;;;;4938030;29;20435;-77
2023/09/03 12:07:35;;;;;;;5.63;2.53;;;;;;;;;;4938492;29;20480;-77
2023/09/03 12:10:01;;;;;;;4.60;2.30;;;;;;;;;;4938419;29;20414;-77
2023/09/03 12:12:28;;;;;;;3.90;2.23;;;;;;;;;;4938423;29;20501;-77
2023/09/03 12:14:54;;;;;;;4.07;2.70;;;;;;;;;;4961054;23;20919;-77
2023/09/03 12:17:23;;;;;;;3.57;2.43;;;;;;;;;;4917605;29;20823;-75
2023/09/03 12:19:50;;;;;;;5.70;2.50;;;;;;;;;;4918605;29;20505;-75
2023/09/03 12:22:17;;;;;;;2.30;1.80;;;;;;;;;;4922827;29;20469;-75
2023/09/03 12:24:43;;;;;;;2.97;2.40;;;;;;;;;;4926388;29;20433;-74
2023/09/03 12:27:09;;;;;;;2.53;1.90;;;;;;;;;;4917978;29;20430;-74
2023/09/03 12:29:36;;;;;;;3.70;2.60;;;;;;;;;;4917839;29;20427;-75
2023/09/03 12:32:02;;;;;;;2.80;2.10;;;;;;;;;;4917829;29;20521;-74
2023/09/03 12:34:35;;;;;;;6.27;2.20;;;;;;;;;;4928349;29;20429;-74
2023/09/03 12:37:01;;;;;;;3.30;2.17;;;;;;;;;;4941228;29;20433;-75
2023/09/03 12:39:42;;;;;;;5.30;2.20;;;;;;;;;;4937996;29;20466;-75
2023/09/03 12:42:09;;;;;;;3.33;1.97;;;;;;;;;;4938500;29;20451;-75
2023/09/03 12:44:35;;;;;;;2.63;1.70;;;;;;;;;;4923836;29;20526;-76
2023/09/03 12:47:01;;;;;;;4.17;1.97;;;;;;;;;;4918360;29;20454;-75
2023/09/03 12:49:28;;;;;;;2.80;2.30;;;;;;;;;;4917733;29;20446;-76
2023/09/03 12:51:54;;;;;;;5.90;2.20;;;;;;;;;;4917563;29;20497;-75
2023/09/03 12:54:20;;;;;;;3.03;2.00;;;;;;;;;;4927828;29;20464;-75
2023/09/03 12:56:46;;;;;;;3.10;1.90;;;;;;;;;;4936488;29;20790;-75
2023/09/03 12:59:12;;;;;;;4.27;2.17;;;;;;;;;;4936235;29;20486;-75
2023/09/03 13:01:39;;;;;;;3.83;1.70;;;;;;;;;;4936434;29;20748;-75
2023/09/03 13:04:10;;;;;;;2.53;1.70;;;;;;;;;;4935334;29;20434;-75
2023/09/03 13:06:36;;;;;;;2.37;2.00;;;;;;;;;;4935799;29;20441;-75
2023/09/03 13:09:02;;;;;;;2.60;1.83;;;;;;;;;;4935717;29;20417;-75
2023/09/03 13:11:28;;;;;;;2.97;1.93;;;;;;;;;;4935755;29;20425;-75
2023/09/03 13:13:54;;;;;;;2.60;1.80;;;;;;;;;;4929208;29;20474;-76
2023/09/03 13:16:21;;;;;;;3.53;1.90;;;;;;;;;;4915352;29;20503;-75
2023/09/03 13:18:48;;;;;;;3.13;1.97;;;;;;;;;;4916634;29;20837;-75
2023/09/03 13:21:16;;;;;;;2.53;1.97;;;;;;;;;;4915338;29;20939;-75
2023/09/03 13:23:42;;;;;;;2.40;2.00;;;;;;;;;;4920920;29;20426;-76
2023/09/03 13:26:08;;;;;;;3.37;2.30;;;;;;;;;;4933748;29;20445;-76
2023/09/03 13:28:34;;;;;;;3.30;2.00;;;;;;;;;;4935102;29;20434;-76
2023/09/03 13:31:01;;;;;;;9.33;2.33;;;;;;;;;;4935379;29;20418;-76
2023/09/03 13:33:27;;;;;;;3.13;2.10;;;;;;;;;;4933171;29;20466;-75
2023/09/03 13:35:53;;;;;;;2.03;1.70;;;;;;;;;;4916454;29;20446;-75
2023/09/03 13:38:19;;;;;;;2.53;2.00;;;;;;;;;;4916094;29;20421;-75
2023/09/03 13:40:45;;;;;;;4.37;2.00;;;;;;;;;;4916403;29;20413;-75
2023/09/03 13:43:11;;;;;;;3.03;2.10;;;;;;;;;;4919363;29;20489;-75
2023/09/03 13:45:37;;;;;;;2.97;1.80;;;;;;;;;;4930781;29;20451;-75
2023/09/03 13:48:03;;;;;;;4.30;2.00;;;;;;;;;;4916089;29;20927;-75
2023/09/03 13:50:29;;;;;;;3.80;1.90;;;;;;;;;;4916262;29;20475;-75
2023/09/03 13:52:56;;;;;;;2.33;1.90;;;;;;;;;;4915938;29;20469;-75
2023/09/03 13:55:25;;;;;;;2.53;1.90;;;;;;;;;;4930175;29;20868;-75
2023/09/03 13:57:54;;;;;;;9.10;2.13;;;;;;;;;;4934986;29;20504;-75
2023/09/03 14:00:21;;;;;;;2.43;2.00;;;;;;;;;;4935074;29;20734;-75
2023/09/03 14:02:47;;;;;;;2.50;1.67;;;;;;;;;;4934434;29;20417;-75
2023/09/03 14:05:13;;;;;;;2.87;1.93;;;;;;;;;;4917812;29;20452;-75
2023/09/03 14:07:39;;;;;;;3.10;1.97;;;;;;;;;;4911546;29;20423;-75
2023/09/03 14:10:05;;;;;;;3.10;2.07;;;;;;;;;;4897196;29;20484;-75
2023/09/03 14:12:31;;;;;;;2.00;1.70;;;;;;;;;;4913468;29;20961;-75
2023/09/03 14:14:57;;;;;;;3.03;2.07;;;;;;;;;;4934244;29;20906;-75
2023/09/03 14:17:23;;;;;;;4.70;1.87;;;;;;;;;;4934814;29;20670;-75
2023/09/03 14:19:49;;;;;;;3.20;1.90;;;;;;;;;;4934635;29;20895;-75
2023/09/03 14:22:16;;;;;;;3.10;1.87;;;;;;;;;;4929346;29;20426;-75
2023/09/03 14:24:42;;;;;;;3.00;1.97;;;;;;;;;;4915502;29;20971;-75
2023/09/03 14:27:08;;;;;;;2.50;2.20;;;;;;;;;;4914187;29;20478;-75
2023/09/03 14:29:34;;;;;;;6.20;2.07;;;;;;;;;;4915480;29;20458;-75
2023/09/03 14:32:01;;;;;;;2.77;1.87;;;;;;;;;;4915771;29;20436;-75
2023/09/03 14:34:27;;;;;;;2.53;2.17;;;;;;;;;;4914310;29;20418;-75
2023/09/03 14:36:53;;;;;;;3.37;2.50;;;;;;;;;;4915518;29;20720;-75
2023/09/03 14:39:19;;;;;;;6.47;2.70;;;;;;;;;;4915352;29;20411;-75
2023/09/03 14:41:45;;;;;;;2.80;2.17;;;;;;;;;;4915880;29;20529;-74
2023/09/03 14:44:11;;;;;;;3.40;2.43;;;;;;;;;;4936615;29;20432;-74
2023/09/03 14:46:37;;;;;;;4.10;2.10;;;;;;;;;;4936922;29;20453;-76
2023/09/03 14:49:04;;;;;;;2.83;1.63;;;;;;;;;;4935702;29;20434;-75
2023/09/03 14:51:30;;;;;;;7.67;2.30;;;;;;;;;;4935341;29;20412;-75
2023/09/03 14:53:57;;;;;;;3.00;2.50;;;;;;;;;;4916885;29;20852;-75
2023/09/03 14:56:23;;;;;;;5.43;2.00;;;;;;;;;;4915383;29;20872;-75
2023/09/03 14:58:49;;;;;;;3.10;2.17;;;;;;;;;;4915229;29;20411;-74
2023/09/03 15:01:19;;;;;;;2.60;2.13;;;;;;;;;;4915375;29;20426;-75
2023/09/03 15:03:47;;;;;;;2.30;1.97;;;;;;;;;;4930463;29;20433;-75
2023/09/03 15:06:14;;;;;;;2.00;1.87;;;;;;;;;;4934220;29;20429;-74
2023/09/03 15:08:41;;;;;;;3.17;1.87;;;;;;;;;;4934024;29;20425;-74
2023/09/03 15:11:16;;;;;;;3.90;2.17;;;;;;;;;;4932884;29;20434;-75
2023/09/03 15:13:43;;;;;;;2.80;1.87;;;;;;;;;;4920057;29;20994;-75
2023/09/03 15:16:09;;;;;;;3.13;1.70;;;;;;;;;;4918935;29;20462;-75
2023/09/03 15:18:36;;;;;;;2.67;1.97;;;;;;;;;;4918852;29;20505;-75
2023/09/03 15:21:02;;;;;;;3.20;2.00;;;;;;;;;;4919005;29;20964;-75
2023/09/03 15:23:28;;;;;;;2.93;1.80;;;;;;;;;;4931017;29;20436;-75
2023/09/03 15:25:54;;;;;;;2.47;2.10;;;;;;;;;;4937711;29;20804;-74
2023/09/03 15:28:21;;;;;;;3.60;2.10;;;;;;;;;;4937581;29;20422;-74
2023/09/03 15:30:47;;;;;;;2.30;1.70;;;;;;;;;;4936113;29;20425;-75
2023/09/03 15:33:13;;;;;;;3.40;2.00;;;;;;;;;;4926895;29;20476;-74
2023/09/03 15:35:39;;;;;;;2.70;2.03;;;;;;;;;;4918693;29;20435;-75
2023/09/03 15:38:06;;;;;;;2.50;2.10;;;;;;;;;;4918404;29;20430;-75
2023/09/03 15:40:32;;;;;;;2.30;2.00;;;;;;;;;;4920617;29;20434;-75
2023/09/03 15:42:58;;;;;;;2.50;1.97;;;;;;;;;;4929250;29;20776;-74
2023/09/03 15:45:24;;;;;;;10.67;2.10;;;;;;;;;;4918427;29;20446;-75
2023/09/03 15:47:50;;;;;;;3.23;1.93;;;;;;;;;;4918482;29;20509;-75
2023/09/03 15:50:16;;;;;;;3.00;1.60;;;;;;;;;;4918541;29;20426;-74
2023/09/03 15:52:42;;;;;;;2.47;1.80;;;;;;;;;;4924521;29;20568;-74
2023/09/03 15:55:08;;;;;;;3.30;2.17;;;;;;;;;;4939700;29;20424;-75
2023/09/03 15:57:34;;;;;;;2.57;2.13;;;;;;;;;;4937107;29;20422;-75
2023/09/03 16:00:00;;;;;;;3.90;2.20;;;;;;;;;;4936961;29;20410;-75
2023/09/03 16:02:27;;;;;;;4.43;1.50;;;;;;;;;;4936556;29;20782;-74
2023/09/03 16:04:53;;;;;;;3.10;1.70;;;;;;;;;;4936972;29;20485;-75
2023/09/03 16:07:19;;;;;;;3.90;2.27;;;;;;;;;;4937141;29;20496;-75
2023/09/03 16:09:45;;;;;;;3.00;1.90;;;;;;;;;;4936980;29;20445;-74
2023/09/03 16:12:11;;;;;;;2.40;1.70;;;;;;;;;;4935464;29;20523;-75
2023/09/03 16:14:37;;;;;;;2.47;1.70;;;;;;;;;;4918028;29;20426;-75
2023/09/03 16:17:03;;;;;;;3.20;1.93;;;;;;;;;;4917842;29;20493;-75
2023/09/03 16:19:29;;;;;;;4.27;2.00;;;;;;;;;;4917641;29;20502;-75
2023/09/03 16:21:55;;;;;;;2.73;2.40;;;;;;;;;;4918295;29;20854;-74
2023/09/03 16:24:21;;;;;;;3.80;2.43;;;;;;;;;;4935226;29;20516;-74
2023/09/03 16:26:47;;;;;;;2.50;1.83;;;;;;;;;;4936119;29;20533;-74
2023/09/03 16:29:13;;;;;;;2.20;2.00;;;;;;;;;;4936301;29;20947;-74
2023/09/03 16:31:39;;;;;;;4.27;2.93;;;;;;;;;;4936756;29;20410;-75
2023/09/03 16:34:06;;;;;;;2.17;1.93;;;;;;;;;;4920346;29;20474;-75
2023/09/03 16:36:32;;;;;;;5.23;1.70;;;;;;;;;;4917685;29;20430;-75
2023/09/03 16:38:58;;;;;;;2.07;1.90;;;;;;;;;;4918109;29;20801;-74
2023/09/03 16:41:25;;;;;;;2.43;1.70;;;;;;;;;;4919947;29;20434;-74
2023/09/03 16:43:51;;;;;;;2.97;2.27;;;;;;;;;;4932382;29;20437;-74
2023/09/03 16:46:21;;;;;;;4.60;2.57;;;;;;;;;;4936320;29;20437;-75
2023/09/03 16:48:47;;;;;;;3.20;2.10;;;;;;;;;;4936088;29;20417;-75
2023/09/03 16:51:13;;;;;;;4.60;2.30;;;;;;;;;;4936432;29;20418;-75
2023/09/03 16:53:39;;;;;;;5.87;2.73;;;;;;;;;;4923767;29;20470;-75
2023/09/03 16:56:05;;;;;;;2.83;2.07;;;;;;;;;;4917259;29;20477;-75
2023/09/03 16:58:31;;;;;;;4.83;2.57;;;;;;;;;;4917156;29;20469;-75
2023/09/03 17:00:57;;;;;;;2.63;1.90;;;;;;;;;;4917088;29;20545;-75
2023/09/03 17:03:26;;;;;;;4.40;2.33;;;;;;;;;;4917057;29;20526;-75
2023/09/03 17:05:52;;;;;;;2.73;1.90;;;;;;;;;;4917042;29;20489;-75
2023/09/03 17:08:19;;;;;;;4.63;2.07;;;;;;;;;;4916935;29;20457;-75
2023/09/03 17:10:45;;;;;;;3.20;2.53;;;;;;;;;;4917002;29;20415;-75
2023/09/03 17:13:11;;;;;;;3.70;2.00;;;;;;;;;;4916903;29;20971;-76
2023/09/03 17:15:40;;;;;;;4.43;2.90;;;;;;;;;;4917019;29;20450;-74
2023/09/03 17:18:07;;;;;;;3.03;2.00;;;;;;;;;;4916923;29;20415;-74
2023/09/03 17:20:33;;;;;;;2.30;1.70;;;;;;;;;;4917143;29;20407;-74
2023/09/03 17:22:59;;;;;;;2.13;1.53;;;;;;;;;;4922169;29;20464;-74
2023/09/03 17:25:25;;;;;;;3.90;2.47;;;;;;;;;;4935617;29;20466;-74
2023/09/03 17:27:52;;;;;;;5.00;2.10;;;;;;;;;;4936043;29;20543;-75
2023/09/03 17:30:18;;;;;;;3.73;2.43;;;;;;;;;;4935784;29;20914;-74
2023/09/03 17:32:45;;;;;;;4.60;1.93;;;;;;;;;;4931607;29;20466;-74
2023/09/03 17:35:11;;;;;;;3.20;2.10;;;;;;;;;;4916792;29;20438;-74
2023/09/03 17:37:38;;;;;;;3.73;2.33;;;;;;;;;;4916293;29;20450;-75
2023/09/03 17:40:05;;;;;;;4.40;2.00;;;;;;;;;;4916522;29;20949;-75
2023/09/03 17:42:31;;;;;;;4.30;2.33;;;;;;;;;;4917693;29;20784;-75
2023/09/03 17:45:01;;;;;;;5.10;2.30;;;;;;;;;;4935563;29;20417;-75
2023/09/03 17:47:28;;;;;;;3.60;2.67;;;;;;;;;;4935591;29;20944;-75
2023/09/03 17:49:54;;;;;;;2.27;1.93;;;;;;;;;;4935125;29;20420;-75
2023/09/03 17:52:20;;;;;;;3.77;2.77;;;;;;;;;;4934764;29;20824;-75
2023/09/03 17:54:46;;;;;;;6.17;2.90;;;;;;;;;;4916284;29;20762;-75
2023/09/03 17:57:11;;;;;;;4.23;2.60;;;;;;;;;;4916172;29;20442;-75
2023/09/03 17:59:37;;;;;;;4.60;2.80;;;;;;;;;;4916028;29;20805;-75
2023/09/03 18:02:04;;;;;;;4.60;2.67;;;;;;;;;;4916922;29;20778;-75
2023/09/03 18:04:39;;;;;;;5.13;2.80;;;;;;;;;;4932647;29;20770;-75
2023/09/03 18:07:05;;;;;;;4.27;2.70;;;;;;;;;;4933671;29;20844;-75
2023/09/03 18:09:31;;;;;;;3.17;2.33;;;;;;;;;;4934947;29;20497;-75
2023/09/03 18:11:57;;;;;;;3.43;2.57;;;;;;;;;;4935085;29;20561;-75
2023/09/03 18:14:24;;;;;;;4.30;2.07;;;;;;;;;;4919696;29;20529;-75
2023/09/03 18:16:50;;;;;;;4.30;2.60;;;;;;;;;;4910057;29;20458;-75
2023/09/03 18:19:16;;;;;;;4.70;3.07;;;;;;;;;;4915807;29;20470;-74
2023/09/03 18:21:42;;;;;;;6.00;3.10;;;;;;;;;;4916017;29;20411;-75
2023/09/03 18:24:08;;;;;;;3.97;2.70;;;;;;;;;;4929048;29;20501;-77
2023/09/03 18:26:35;;;;;;;4.57;2.97;;;;;;;;;;4934305;29;20436;-75
2023/09/03 18:29:02;;;;;;;4.40;3.00;;;;;;;;;;4934396;29;20914;-75
2023/09/03 18:31:28;;;;;;;4.70;3.23;;;;;;;;;;4935209;29;20414;-74
2023/09/03 18:33:54;;;;;;;5.73;3.50;;;;;;;;;;4923820;29;20573;-74
2023/09/03 18:36:20;;;;;;;6.67;2.90;;;;;;;;;;4916562;29;20510;-75
2023/09/03 18:38:46;;;;;;;10.40;4.37;;;;;;;;;;4916807;29;20475;-74
2023/09/03 18:41:12;;;;;;;4.40;3.00;;;;;;;;;;4915665;29;20411;-74
2023/09/03 18:43:38;;;;;;;5.80;3.50;;;;;;;;;;4916064;29;20488;-75
2023/09/03 18:46:06;;;;;;;6.93;3.93;;;;;;;;;;4927225;29;20957;-75
2023/09/03 18:48:32;;;;;;;5.70;3.37;;;;;;;;;;4937345;29;20424;-75
2023/09/03 18:51:01;;;;;;;8.77;4.27;;;;;;;;;;4938589;29;20456;-75
2023/09/03 18:53:27;;;;;;;10.53;4.10;;;;;;;;;;4930871;29;20482;-74
2023/09/03 18:55:53;;;;;;;5.33;3.93;;;;;;;;;;4930275;29;20454;-74
2023/09/03 18:58:19;;;;;;;6.47;4.13;;;;;;;;;;4927112;29;20434;-74
2023/09/03 19:00:46;;;;;;;7.60;3.97;;;;;;;;;;4919694;29;20489;-74
2023/09/03 19:03:12;;;;;;;7.60;4.60;;;;;;;;;;4919687;29;20505;-74
2023/09/03 19:05:43;;;;;;;6.10;4.40;;;;;;;;;;4919614;29;20434;-74
2023/09/03 19:08:09;;;;;;;5.90;3.60;;;;;;;;;;4919264;29;20425;-74
2023/09/03 19:10:37;;;;;;;5.20;4.13;;;;;;;;;;4920245;29;20521;-74
2023/09/03 19:13:07;;;;;;;7.73;4.67;;;;;;;;;;4933766;29;21041;-74
2023/09/03 19:15:38;;;;;;;7.03;4.37;;;;;;;;;;4900212;29;20450;-74
2023/09/03 19:18:05;;;;;;;9.03;4.27;;;;;;;;;;4900189;29;20419;-74
2023/09/03 19:20:30;;;;;;;8.73;5.00;;;;;;;;;;4900336;29;20415;-76
2023/09/03 19:22:56;;;;;;;8.10;4.67;;;;;;;;;;4932439;29;20466;-75
2023/09/03 19:25:22;;;;;;;8.10;4.80;;;;;;;;;;4938100;29;20624;-74
2023/09/03 19:27:48;;;;;;;7.87;4.93;;;;;;;;;;4938151;29;20452;-76
2023/09/03 19:30:14;;;;;;;10.13;5.13;;;;;;;;;;4937926;29;20421;-74
2023/09/03 19:32:40;;;;;;;7.63;4.50;;;;;;;;;;4938057;29;20990;-74
2023/09/03 19:35:07;;;;;;;7.50;5.07;;;;;;;;;;4935955;29;20800;-74
2023/09/03 19:37:33;;;;;;;7.50;4.77;;;;;;;;;;4918951;29;20461;-74
2023/09/03 19:39:59;;;;;;;7.27;4.60;;;;;;;;;;4918902;29;20411;-74
2023/09/03 19:42:25;;;;;;;4.00;3.70;;;;;;;;;;4918681;29;20419;-74
2023/09/03 19:44:51;;;;;;;9.57;4.13;;;;;;;;;;4918772;29;20422;-74
2023/09/03 19:47:17;;;;;;;6.50;3.80;;;;;;;;;;4936737;29;20425;-74
2023/09/03 19:49:43;;;;;;;5.73;4.00;;;;;;;;;;4937818;29;20413;-74
2023/09/03 19:52:14;;;;;;;7.17;4.37;;;;;;;;;;4937710;29;20426;-74
2023/09/03 19:54:40;;;;;;;9.73;5.10;;;;;;;;;;4937661;29;20959;-74
2023/09/03 19:57:06;;;;;;;9.37;4.47;;;;;;;;;;4936390;29;20512;-74
2023/09/03 19:59:32;;;;;;;8.97;5.37;;;;;;;;;;4917613;29;20475;-75
2023/09/03 20:01:59;;;;;;;7.67;5.30;;;;;;;;;;4918617;29;20498;-75
2023/09/03 20:04:25;;;;;;;10.30;5.73;;;;;;;;;;4918482;29;20472;-74
2023/09/03 20:06:51;;;;;;;11.17;5.93;;;;;;;;;;4918378;29;20948;-74
2023/09/03 20:09:18;;;;;;;8.63;5.00;;;;;;;;;;4918255;29;20472;-74
2023/09/03 20:11:44;;;;;;;10.73;5.70;;;;;;;;;;4936512;29;20513;-75
2023/09/03 20:14:11;;;;;;;11.27;5.70;;;;;;;;;;4937507;29;20503;-74
2023/09/03 20:16:37;;;;;;;11.50;5.90;;;;;;;;;;4937396;29;20468;-74
2023/09/03 20:19:03;;;;;;;11.90;5.23;;;;;;;;;;4937436;29;20903;-75
2023/09/03 20:21:29;;;;;;;9.20;5.33;;;;;;;;;;4933642;29;20797;-75
2023/09/03 20:23:55;;;;;;;8.00;5.37;;;;;;;;;;4918647;29;20415;-74
2023/09/03 20:26:22;;;;;;;7.50;4.70;;;;;;;;;;4918543;29;20457;-75
2023/09/03 20:28:48;;;;;;;8.20;4.67;;;;;;;;;;4917250;29;20796;-74
2023/09/03 20:31:14;;;;;;;9.03;5.00;;;;;;;;;;4918632;29;20509;-74
2023/09/03 20:33:40;;;;;;;5.80;3.97;;;;;;;;;;4924860;29;20548;-74
2023/09/03 20:36:07;;;;;;;8.77;4.70;;;;;;;;;;4938694;29;20442;-74
2023/09/03 20:38:33;;;;;;;7.47;4.60;;;;;;;;;;4937001;29;20836;-75